Austintown, Ohio
Current Conditions -  °F | °C
As of 10:51 AM on Friday 21 Nov 2014 (Local Time) from KYNG Reporting Station
Broken Clouds Broken Clouds  
Wind Chill: 12°   Ceiling: 1700
Heat Index: 22°   Visibility: 9mi
Dew Point: 13°   Wind: 9mph
Humidity: 68%   Direction: 270°W
Pressure: 30.43"   Gusts: NA
Location:  41.1°N, 80.76°W
Report Text: KYNG 211551Z 27008KT 9SM BKN017 BKN050 M06/M11 A3043 RMK AO2 SLP323 T10561106
Loading
Personal Weather Stations






























Interactive Weather Map New forecast layout! Learn more

10-Day Weather Forecast

Advertisements
Track Severe Weather on mobile